createdAt,value
2022-12-12T00:00:51.152Z,85.00
2022-12-12T00:03:24.834Z,84.76
2022-12-12T00:05:58.079Z,84.83
2022-12-12T00:08:31.452Z,85.22
2022-12-12T00:11:06.803Z,85.33
2022-12-12T00:13:39.958Z,85.20
2022-12-12T00:16:13.743Z,85.47
2022-12-12T00:18:47.137Z,85.68
2022-12-12T00:21:22.669Z,85.94
2022-12-12T00:23:58.090Z,86.17
2022-12-12T00:26:33.788Z,86.29
2022-12-12T00:29:07.391Z,86.38
2022-12-12T00:31:40.866Z,86.05
2022-12-12T00:34:15.317Z,86.29
2022-12-12T00:36:48.546Z,86.46
2022-12-12T00:39:23.181Z,86.45
2022-12-12T00:41:56.345Z,86.67
2022-12-12T00:44:29.518Z,86.81
2022-12-12T00:47:03.000Z,86.88
2022-12-12T00:49:36.364Z,86.98
2022-12-12T00:52:09.532Z,86.81
2022-12-12T00:54:42.489Z,86.98
2022-12-12T00:57:15.664Z,87.09
2022-12-12T00:59:48.844Z,87.01
2022-12-12T01:02:27.858Z,87.16
2022-12-12T01:04:56.916Z,87.30
2022-12-12T01:07:30.164Z,87.35
2022-12-12T01:10:02.969Z,87.25
2022-12-12T01:12:36.382Z,87.29
2022-12-12T01:15:13.168Z,87.40
2022-12-12T01:17:46.315Z,87.40
2022-12-12T01:20:22.420Z,87.51
2022-12-12T01:22:56.800Z,87.56
2022-12-12T01:25:29.877Z,87.62
2022-12-12T01:28:03.515Z,87.56
2022-12-12T01:30:36.895Z,87.22
2022-12-12T01:33:10.145Z,87.30
2022-12-12T01:35:43.356Z,87.29
2022-12-12T01:38:16.504Z,87.26
2022-12-12T01:40:49.790Z,87.44
2022-12-12T01:43:24.293Z,87.52
2022-12-12T01:46:49.681Z,87.62
2022-12-12T01:49:27.528Z,87.61
2022-12-12T01:52:03.586Z,87.56
2022-12-12T01:54:39.495Z,87.58
2022-12-12T01:57:15.792Z,87.64
2022-12-12T01:59:49.480Z,87.78
2022-12-12T02:02:22.938Z,87.68
2022-12-12T02:04:56.285Z,87.82
2022-12-12T02:07:29.382Z,87.65
2022-12-12T02:10:02.408Z,87.84
2022-12-12T02:12:42.536Z,87.83
2022-12-12T02:15:16.060Z,87.70
2022-12-12T02:18:03.790Z,87.75
2022-12-12T02:21:01.421Z,87.78
2022-12-12T02:24:29.931Z,87.76
2022-12-12T02:27:51.545Z,88.05
2022-12-12T02:30:26.392Z,88.22
2022-12-12T02:33:13.143Z,88.32
2022-12-12T02:35:53.009Z,88.34
2022-12-12T02:38:29.446Z,88.32
2022-12-12T02:41:09.901Z,88.33
2022-12-12T02:43:45.599Z,88.46
2022-12-12T02:46:21.748Z,88.43
2022-12-12T02:48:58.084Z,88.47
2022-12-12T02:51:33.471Z,88.63
2022-12-12T02:54:09.031Z,88.58
2022-12-12T02:56:51.562Z,88.64
2022-12-12T02:59:27.837Z,88.73
2022-12-12T03:02:59.011Z,88.69
2022-12-12T03:05:58.699Z,88.82
2022-12-12T03:08:43.188Z,88.71
2022-12-12T03:11:19.319Z,88.84
2022-12-12T03:13:56.084Z,88.96
2022-12-12T03:16:32.821Z,89.00
2022-12-12T03:19:09.210Z,89.13
2022-12-12T03:21:45.163Z,89.00
2022-12-12T03:24:22.551Z,88.94
2022-12-12T03:26:58.734Z,88.86
2022-12-12T03:29:34.587Z,88.97
2022-12-12T03:32:10.637Z,89.06
2022-12-12T03:34:46.742Z,89.01
2022-12-12T03:37:23.855Z,89.02
2022-12-12T03:39:59.649Z,89.11
2022-12-12T03:42:36.923Z,89.11
2022-12-12T03:45:14.840Z,88.94
2022-12-12T03:47:52.754Z,88.97
2022-12-12T03:50:28.917Z,89.01
2022-12-12T03:53:04.928Z,89.10
2022-12-12T03:55:42.065Z,89.01
2022-12-12T03:58:18.006Z,88.96
2022-12-12T04:00:53.019Z,89.16
2022-12-12T04:03:29.719Z,89.26
2022-12-12T04:06:56.241Z,89.25
2022-12-12T04:10:00.225Z,89.21
2022-12-12T04:12:56.106Z,89.17
2022-12-12T04:15:59.675Z,89.30
2022-12-12T04:18:43.914Z,89.32
2022-12-12T04:21:42.890Z,89.38
2022-12-12T04:24:22.152Z,89.37
2022-12-12T04:26:59.033Z,89.53
2022-12-12T04:29:41.465Z,89.42
2022-12-12T04:32:18.830Z,89.48
2022-12-12T04:34:54.856Z,89.52
2022-12-12T04:37:30.634Z,89.42
2022-12-12T04:40:06.073Z,89.52
2022-12-12T04:42:42.116Z,89.50
2022-12-12T04:45:18.385Z,89.44
2022-12-12T04:47:54.852Z,89.40
2022-12-12T04:50:30.809Z,89.36
2022-12-12T04:53:06.144Z,89.42
2022-12-12T04:55:43.842Z,89.39
2022-12-12T04:58:17.578Z,89.25
2022-12-12T05:00:54.089Z,89.35
2022-12-12T05:03:30.369Z,89.44
2022-12-12T05:06:06.724Z,89.48
2022-12-12T05:08:42.850Z,89.28
2022-12-12T05:11:18.598Z,89.33
2022-12-12T05:13:52.297Z,89.39
2022-12-12T05:16:28.363Z,89.47
2022-12-12T05:19:01.876Z,89.22
2022-12-12T05:21:35.039Z,89.12
2022-12-12T05:24:09.219Z,89.31
2022-12-12T05:26:42.467Z,89.15
2022-12-12T05:29:15.635Z,89.13
2022-12-12T05:31:48.573Z,89.12
2022-12-12T05:34:21.798Z,89.14
2022-12-12T05:36:55.458Z,89.26
2022-12-12T05:39:28.664Z,89.33
2022-12-12T05:42:01.725Z,89.18
2022-12-12T05:44:34.728Z,89.17
2022-12-12T05:47:08.093Z,89.21
2022-12-12T05:49:41.092Z,89.31
2022-12-12T05:52:14.539Z,89.33
2022-12-12T05:54:47.746Z,89.24
2022-12-12T05:57:21.215Z,89.32
2022-12-12T05:59:54.133Z,89.38
2022-12-12T06:02:27.407Z,89.50
2022-12-12T06:05:00.468Z,89.41
2022-12-12T06:07:34.389Z,89.30
2022-12-12T06:10:09.592Z,89.21
2022-12-12T06:12:43.884Z,89.11
2022-12-12T06:15:17.567Z,89.25
2022-12-12T06:17:52.159Z,89.32
2022-12-12T06:20:25.757Z,89.42
2022-12-12T06:22:58.948Z,89.46
2022-12-12T06:25:32.427Z,89.39
2022-12-12T06:28:05.710Z,89.47
2022-12-12T06:30:39.510Z,89.41
2022-12-12T06:33:12.683Z,89.71
2022-12-12T06:35:46.697Z,89.61
2022-12-12T06:38:20.632Z,89.65
2022-12-12T06:40:54.235Z,89.52
2022-12-12T06:43:27.571Z,89.63
2022-12-12T06:46:04.308Z,89.42
2022-12-12T06:48:37.997Z,89.34
2022-12-12T06:51:13.083Z,89.43
2022-12-12T06:53:46.402Z,89.42
2022-12-12T06:56:21.345Z,89.43
2022-12-12T06:58:55.256Z,89.59
2022-12-12T07:01:28.715Z,89.36
2022-12-12T07:04:02.075Z,89.40
2022-12-12T07:06:35.438Z,89.55
2022-12-12T07:09:09.279Z,89.46
2022-12-12T07:11:42.629Z,89.68
2022-12-12T07:14:15.717Z,89.88
2022-12-12T07:16:49.071Z,89.67
2022-12-12T07:19:23.516Z,89.81
2022-12-12T07:21:56.708Z,89.68
2022-12-12T07:24:29.862Z,89.70
2022-12-12T07:27:02.685Z,89.71
2022-12-12T07:29:36.204Z,89.51
2022-12-12T07:32:09.352Z,89.34
2022-12-12T07:34:42.572Z,89.63
2022-12-12T07:37:15.728Z,89.35
2022-12-12T07:39:48.893Z,89.60
2022-12-12T07:42:21.982Z,89.77
2022-12-12T07:44:55.247Z,89.63
2022-12-12T07:47:28.540Z,89.75
2022-12-12T07:50:01.257Z,89.75
2022-12-12T07:52:34.465Z,89.74
2022-12-12T07:55:09.247Z,89.86
2022-12-12T07:57:42.741Z,89.87
2022-12-12T08:00:18.236Z,89.68
2022-12-12T08:02:51.823Z,89.58
2022-12-12T08:05:25.729Z,89.78
2022-12-12T08:07:59.003Z,89.75
2022-12-12T08:10:32.259Z,89.74
2022-12-12T08:13:05.081Z,89.87
2022-12-12T08:15:38.476Z,89.86
2022-12-12T08:18:11.614Z,89.82
2022-12-12T08:20:44.946Z,89.92
2022-12-12T08:23:18.121Z,89.86
2022-12-12T08:25:51.293Z,89.78
2022-12-12T08:28:24.396Z,89.88
2022-12-12T08:30:57.579Z,89.81
2022-12-12T08:33:31.539Z,89.75
2022-12-12T08:36:13.372Z,89.83
2022-12-12T08:38:46.797Z,89.71
2022-12-12T08:41:20.594Z,89.97
2022-12-12T08:43:54.344Z,89.73
2022-12-12T08:46:27.524Z,89.91
2022-12-12T08:49:00.916Z,89.92
2022-12-12T08:51:34.494Z,89.88
2022-12-12T08:54:08.605Z,90.11
2022-12-12T08:56:42.179Z,89.96
2022-12-12T08:59:15.455Z,89.80
2022-12-12T09:01:48.694Z,89.65
2022-12-12T09:04:23.543Z,89.90
2022-12-12T09:06:57.477Z,89.78
2022-12-12T09:09:31.210Z,89.95
2022-12-12T09:12:04.758Z,89.91
2022-12-12T09:14:38.214Z,90.02
2022-12-12T09:17:11.226Z,89.77
2022-12-12T09:19:45.876Z,89.85
2022-12-12T09:22:18.955Z,89.83
2022-12-12T09:24:52.128Z,89.93
2022-12-12T09:27:25.508Z,89.75
2022-12-12T09:29:59.379Z,89.78
2022-12-12T09:32:34.396Z,89.78
2022-12-12T09:35:08.827Z,89.85
2022-12-12T09:37:41.987Z,89.98
2022-12-12T09:40:19.224Z,89.92
2022-12-12T09:42:54.423Z,89.91
2022-12-12T09:45:41.162Z,89.80
2022-12-12T09:48:17.070Z,89.73
2022-12-12T09:50:51.215Z,89.72
2022-12-12T09:53:27.068Z,89.76
2022-12-12T09:56:04.302Z,89.93
2022-12-12T09:58:45.086Z,89.92
2022-12-12T10:01:18.250Z,89.74
2022-12-12T10:03:58.083Z,89.91
2022-12-12T10:06:37.815Z,90.11
2022-12-12T10:09:17.360Z,90.25
2022-12-12T10:11:55.022Z,90.22
2022-12-12T10:14:34.552Z,90.21
2022-12-12T10:17:10.466Z,90.26
2022-12-12T10:19:49.403Z,90.38
2022-12-12T10:22:27.508Z,90.24
2022-12-12T10:25:05.720Z,90.05
2022-12-12T10:27:59.624Z,90.33
2022-12-12T10:30:35.370Z,90.21
2022-12-12T10:33:15.679Z,90.24
2022-12-12T10:35:52.575Z,90.03
2022-12-12T10:38:35.530Z,90.19
2022-12-12T10:41:11.508Z,90.07
2022-12-12T10:43:47.723Z,90.06
2022-12-12T10:46:26.474Z,90.30
2022-12-12T10:49:00.078Z,90.47
2022-12-12T10:51:33.449Z,90.54
2022-12-12T10:54:13.389Z,90.48
2022-12-12T10:57:19.822Z,90.45
2022-12-12T10:59:51.310Z,90.42
2022-12-12T11:02:32.873Z,90.36
2022-12-12T11:05:14.341Z,90.36
2022-12-12T11:07:53.646Z,90.33
2022-12-12T11:10:33.998Z,90.08
2022-12-12T11:13:22.527Z,90.30
2022-12-12T11:15:59.896Z,90.29
2022-12-12T11:18:33.268Z,90.16
2022-12-12T11:21:09.869Z,90.17
2022-12-12T11:23:45.957Z,90.13
2022-12-12T11:26:21.657Z,90.14
2022-12-12T11:28:58.093Z,90.27
2022-12-12T11:31:34.747Z,90.22
2022-12-12T11:34:09.180Z,90.21
2022-12-12T11:36:43.993Z,89.79
2022-12-12T11:39:21.135Z,89.79
2022-12-12T11:42:06.302Z,89.92
2022-12-12T11:44:40.348Z,89.89
2022-12-12T11:50:22.922Z,89.98
2022-12-12T11:52:58.635Z,89.98
2022-12-12T11:55:36.879Z,90.10
2022-12-12T11:58:17.090Z,89.97
2022-12-12T12:00:54.327Z,90.12
2022-12-12T12:03:40.679Z,90.08
2022-12-12T12:06:25.118Z,90.21
2022-12-12T12:09:09.763Z,90.30
2022-12-12T12:11:46.027Z,89.66
2022-12-12T12:14:28.733Z,90.00
2022-12-12T12:17:05.066Z,90.06
2022-12-12T12:19:45.645Z,90.19
2022-12-12T12:22:24.159Z,89.68
2022-12-12T12:25:09.184Z,89.94
2022-12-12T12:27:47.447Z,89.86
2022-12-12T12:30:24.089Z,90.14
2022-12-12T12:33:12.763Z,90.20
2022-12-12T12:35:51.795Z,89.96
2022-12-12T12:38:29.321Z,89.71
2022-12-12T12:41:13.734Z,89.66
2022-12-12T12:43:58.649Z,89.70
2022-12-12T12:46:38.232Z,89.73
2022-12-12T12:49:16.728Z,89.77
2022-12-12T12:51:53.688Z,89.46
2022-12-12T12:54:28.909Z,89.45
2022-12-12T12:57:05.670Z,89.48
2022-12-12T12:59:41.936Z,89.69
2022-12-12T13:02:26.574Z,89.57
2022-12-12T13:05:00.367Z,89.40
2022-12-12T13:07:40.885Z,89.31
2022-12-12T13:10:19.028Z,89.37
2022-12-12T13:12:56.084Z,89.60
2022-12-12T13:15:32.789Z,89.44
2022-12-12T13:18:09.331Z,89.55
2022-12-12T13:20:45.767Z,89.42
2022-12-12T13:23:26.185Z,89.38
2022-12-12T13:26:02.976Z,89.52
2022-12-12T13:28:38.646Z,89.19
2022-12-12T13:31:39.329Z,89.24
2022-12-12T13:34:15.422Z,89.48
2022-12-12T13:36:51.079Z,89.36
2022-12-12T13:39:30.325Z,89.26
2022-12-12T13:42:05.853Z,89.34
2022-12-12T13:44:42.254Z,89.41
2022-12-12T13:47:35.901Z,89.37
2022-12-12T13:50:17.211Z,89.42
2022-12-12T13:53:10.871Z,89.05
2022-12-12T13:55:46.323Z,88.83
2022-12-12T13:58:38.071Z,89.04
2022-12-12T14:01:37.467Z,89.05
2022-12-12T14:04:27.121Z,89.31
2022-12-12T14:07:05.372Z,89.58
2022-12-12T14:09:48.123Z,89.16
2022-12-12T14:12:27.499Z,88.92
2022-12-12T14:14:59.444Z,89.00
2022-12-12T14:17:42.340Z,89.26
2022-12-12T14:20:24.868Z,89.39
2022-12-12T14:23:31.196Z,89.38
2022-12-12T14:26:06.029Z,89.70
2022-12-12T14:28:39.174Z,89.63
2022-12-12T14:31:17.213Z,89.96
2022-12-12T14:34:14.099Z,90.01
2022-12-12T14:37:15.561Z,89.97
2022-12-12T14:39:58.476Z,89.87
2022-12-12T14:43:18.999Z,90.06
2022-12-12T14:45:38.522Z,90.06
2022-12-12T14:48:11.245Z,90.02
2022-12-12T14:50:51.025Z,90.04
2022-12-12T14:53:25.998Z,90.09
2022-12-12T14:56:02.566Z,90.04
2022-12-12T14:58:38.802Z,90.01
2022-12-12T15:01:12.955Z,89.93
2022-12-12T15:03:48.939Z,90.21
2022-12-12T15:06:28.932Z,90.27
2022-12-12T15:09:11.529Z,90.23
2022-12-12T15:11:45.315Z,90.23
2022-12-12T15:14:22.435Z,90.29
2022-12-12T15:17:00.103Z,90.12
2022-12-12T15:19:36.362Z,90.12
2022-12-12T15:22:15.027Z,90.24
2022-12-12T15:24:48.721Z,90.21
2022-12-12T15:27:25.123Z,90.23
2022-12-12T15:29:59.056Z,90.05
2022-12-12T15:32:34.373Z,90.13
2022-12-12T15:35:16.790Z,90.14
2022-12-12T15:37:58.015Z,89.99
2022-12-12T15:40:32.374Z,89.91
2022-12-12T15:43:08.676Z,90.05
2022-12-12T15:45:44.783Z,90.17
2022-12-12T15:48:19.609Z,90.13
2022-12-12T15:50:58.102Z,90.15
2022-12-12T15:53:33.284Z,90.14
2022-12-12T15:56:09.191Z,90.14
2022-12-12T15:58:45.382Z,90.06
2022-12-12T16:01:22.529Z,89.93
2022-12-12T16:04:01.120Z,90.05
2022-12-12T16:06:38.164Z,90.10
2022-12-12T16:09:18.799Z,89.98
2022-12-12T16:11:54.971Z,90.04
2022-12-12T16:14:40.585Z,90.05
2022-12-12T16:17:14.355Z,90.13
2022-12-12T16:19:50.855Z,89.90
2022-12-12T16:22:39.677Z,89.92
2022-12-12T16:25:21.390Z,89.53
2022-12-12T16:27:58.019Z,89.78
2022-12-12T16:30:31.676Z,89.86
2022-12-12T16:33:15.609Z,89.87
2022-12-12T16:35:48.684Z,90.03
2022-12-12T16:38:29.047Z,89.61
2022-12-12T16:41:04.756Z,89.75
2022-12-12T16:43:39.629Z,89.74
2022-12-12T16:46:22.315Z,89.76
2022-12-12T16:48:59.804Z,89.81
2022-12-12T16:51:36.013Z,89.66
2022-12-12T16:54:17.310Z,89.57
2022-12-12T16:56:52.786Z,89.54
2022-12-12T16:59:25.904Z,89.44
2022-12-12T17:02:02.797Z,89.77
2022-12-12T17:04:43.158Z,89.79
2022-12-12T17:07:22.755Z,89.82
2022-12-12T17:10:06.364Z,89.82
2022-12-12T17:12:40.625Z,89.68
2022-12-12T17:15:17.664Z,89.62
2022-12-12T17:17:51.083Z,89.74
2022-12-12T17:20:24.524Z,89.76
2022-12-12T17:22:58.020Z,89.79
2022-12-12T17:25:32.345Z,89.74
2022-12-12T17:28:07.387Z,89.69
2022-12-12T17:30:42.550Z,89.65
2022-12-12T17:33:18.947Z,89.75
2022-12-12T17:36:01.311Z,89.57
2022-12-12T17:38:34.814Z,89.82
2022-12-12T17:41:09.209Z,90.00
2022-12-12T17:43:42.368Z,90.05
2022-12-12T17:46:19.507Z,90.01
2022-12-12T17:48:57.452Z,90.08
2022-12-12T17:51:33.001Z,89.95
2022-12-12T17:54:07.186Z,89.87
2022-12-12T17:56:41.709Z,89.84
2022-12-12T17:59:17.240Z,90.03
2022-12-12T18:01:52.400Z,90.09
2022-12-12T18:04:28.565Z,89.97
2022-12-12T18:07:01.688Z,90.14
2022-12-12T18:09:35.749Z,90.42
2022-12-12T18:12:09.984Z,90.13
2022-12-12T18:14:49.649Z,90.07
2022-12-12T18:17:24.995Z,90.04
2022-12-12T18:19:58.772Z,90.16
2022-12-12T18:22:33.937Z,90.22
2022-12-12T18:25:10.591Z,90.11
2022-12-12T18:27:46.114Z,89.99
2022-12-12T18:30:22.146Z,90.04
2022-12-12T18:33:02.757Z,90.29
2022-12-12T18:36:06.632Z,90.23
2022-12-12T18:38:58.428Z,90.34
2022-12-12T18:41:33.078Z,90.16
2022-12-12T18:44:08.357Z,90.12
2022-12-12T18:46:43.435Z,90.21
2022-12-12T18:49:18.420Z,90.18
2022-12-12T18:51:51.690Z,90.50
2022-12-12T18:54:24.724Z,90.45
2022-12-12T18:56:57.949Z,90.38
2022-12-12T18:59:32.086Z,90.50
2022-12-12T19:02:08.898Z,90.27
2022-12-12T19:04:44.299Z,90.36
